createdAt,value
2019-06-01T04:04:14.306Z,14.13
2019-06-01T04:09:15.198Z,14.25
2019-06-01T04:14:16.371Z,14.26
2019-06-01T04:19:17.245Z,14.33
2019-06-01T04:24:18.148Z,14.41
2019-06-01T04:29:19.050Z,14.56
2019-06-01T04:34:19.911Z,14.59
2019-06-01T04:39:21.089Z,14.54
2019-06-01T04:44:21.965Z,14.59
2019-06-01T04:49:22.868Z,14.76
2019-06-01T04:54:23.842Z,14.96
2019-06-01T04:59:24.713Z,15.14
2019-06-01T05:04:25.844Z,15.41
2019-06-01T05:09:26.840Z,15.31
2019-06-01T05:14:27.750Z,15.37
2019-06-01T05:19:28.645Z,15.49
2019-06-01T05:24:29.535Z,15.53
2019-06-01T05:29:30.397Z,15.68
2019-06-01T05:34:31.281Z,15.80
2019-06-01T05:39:32.168Z,15.81
2019-06-01T05:44:33.043Z,15.95
2019-06-01T05:49:33.936Z,16.15
2019-06-01T05:54:35.632Z,16.30
2019-06-01T05:59:38.303Z,16.25
2019-06-01T06:04:43.083Z,16.30
2019-06-01T06:09:43.943Z,16.42
2019-06-01T06:14:44.869Z,16.41
2019-06-01T06:19:45.859Z,16.35
2019-06-01T06:24:46.751Z,16.35
2019-06-01T06:29:47.627Z,16.43
2019-06-01T06:34:48.546Z,16.86
2019-06-01T06:39:49.416Z,16.84
2019-06-01T06:44:50.300Z,17.47
2019-06-01T06:49:51.180Z,17.69
2019-06-01T06:54:52.053Z,17.76
2019-06-01T06:59:52.928Z,18.05
2019-06-01T07:04:53.835Z,18.12
2019-06-01T07:09:54.700Z,18.19
2019-06-01T07:14:55.572Z,18.34
2019-06-01T07:19:56.495Z,18.27
2019-06-01T07:24:57.342Z,18.43
2019-06-01T07:29:58.332Z,18.89
2019-06-01T07:35:01.067Z,19.00
2019-06-01T07:40:03.896Z,18.88
2019-06-01T07:45:05.568Z,19.26
2019-06-01T07:50:06.549Z,19.72
2019-06-01T07:55:07.642Z,19.80
2019-06-01T08:00:09.521Z,20.12
2019-06-01T08:05:10.500Z,19.85
2019-06-01T08:10:11.553Z,19.99
2019-06-01T08:15:12.636Z,20.06
2019-06-01T08:20:13.613Z,19.93
2019-06-01T08:25:14.499Z,19.82
2019-06-01T08:30:15.686Z,20.49
2019-06-01T08:35:16.570Z,20.67
2019-06-01T08:40:17.756Z,21.18
2019-06-01T08:45:18.748Z,21.06
2019-06-01T08:50:19.720Z,21.39
2019-06-01T08:55:20.596Z,21.64
2019-06-01T09:00:22.180Z,21.73
2019-06-01T09:05:24.919Z,21.56
2019-06-01T09:10:27.368Z,21.63
2019-06-01T09:15:29.695Z,21.37
2019-06-01T09:20:35.318Z,21.99
2019-06-01T09:25:33.817Z,22.09
2019-06-01T09:30:36.170Z,21.84
2019-06-01T09:35:52.544Z,22.03
2019-06-01T09:40:40.360Z,21.50
2019-06-01T09:45:41.320Z,21.67
2019-06-01T09:50:42.195Z,21.48
2019-06-01T09:55:43.097Z,21.66
2019-06-01T10:00:45.371Z,21.64
2019-06-01T10:06:00.844Z,21.99
2019-06-01T10:10:49.828Z,22.35
2019-06-01T10:15:50.705Z,23.25
2019-06-01T10:20:51.592Z,22.95
2019-06-01T10:25:52.457Z,22.81
2019-06-01T10:30:59.157Z,23.11
2019-06-01T10:36:00.056Z,23.46
2019-06-01T10:41:00.936Z,23.49
2019-06-01T10:46:01.817Z,23.59
2019-06-01T10:51:03.292Z,22.94
2019-06-01T10:56:04.169Z,23.09
2019-06-01T11:01:05.039Z,23.02
2019-06-01T11:06:05.912Z,23.87
2019-06-01T11:11:10.730Z,23.73
2019-06-01T11:16:11.827Z,24.68
2019-06-01T11:21:13.132Z,25.04
2019-06-01T11:26:17.660Z,24.34
2019-06-01T11:31:19.070Z,24.12
2019-06-01T11:36:20.074Z,23.57
2019-06-01T11:41:20.948Z,23.60
2019-06-01T11:46:21.826Z,23.47
2019-06-01T11:51:22.695Z,23.35
2019-06-01T11:56:23.688Z,23.29
2019-06-01T12:01:24.566Z,23.41
2019-06-01T12:06:25.456Z,23.34
2019-06-01T12:11:26.333Z,23.15
2019-06-01T12:16:27.207Z,23.16
2019-06-01T12:21:28.190Z,23.04
2019-06-01T12:26:29.065Z,22.97
2019-06-01T12:31:29.951Z,23.14
2019-06-01T12:36:30.960Z,23.13
2019-06-01T12:41:31.848Z,23.31
2019-06-01T12:46:32.751Z,23.28
2019-06-01T12:51:34.033Z,23.74
2019-06-01T12:56:34.938Z,23.76
2019-06-01T13:01:35.942Z,23.77
2019-06-01T13:06:36.838Z,23.55
2019-06-01T13:11:37.823Z,23.39
2019-06-01T13:16:38.696Z,23.36
2019-06-01T13:21:39.583Z,23.30
2019-06-01T13:26:41.725Z,23.23
2019-06-01T13:31:44.065Z,23.55
2019-06-01T13:36:46.572Z,23.93
2019-06-01T13:41:47.619Z,23.90
2019-06-01T13:46:49.472Z,24.63
2019-06-01T13:51:50.608Z,24.29
2019-06-01T13:56:52.892Z,24.01
2019-06-01T14:01:55.386Z,24.13
2019-06-01T14:06:56.404Z,23.89
2019-06-01T14:11:57.271Z,23.86
2019-06-01T14:16:58.147Z,23.93
2019-06-01T14:21:59.121Z,24.00
2019-06-01T14:27:00.010Z,23.76
2019-06-01T14:32:01.184Z,23.63
2019-06-01T14:37:02.072Z,23.48
2019-06-01T14:42:03.156Z,23.28
2019-06-01T14:47:06.137Z,23.38
2019-06-01T14:52:07.016Z,23.14
2019-06-01T14:57:07.890Z,23.22
2019-06-01T15:02:09.103Z,23.51
2019-06-01T15:07:10.028Z,23.37
2019-06-01T15:12:10.903Z,23.27
2019-06-01T15:17:11.776Z,23.31
2019-06-01T15:22:12.765Z,23.36
2019-06-01T15:27:13.635Z,24.55
2019-06-01T15:32:14.511Z,24.98
2019-06-01T15:37:15.412Z,25.52
2019-06-01T15:42:16.270Z,25.20
2019-06-01T15:47:17.141Z,25.15
2019-06-01T15:52:18.117Z,24.92
2019-06-01T15:57:18.991Z,25.31
2019-06-01T16:02:19.868Z,25.29
2019-06-01T16:07:20.744Z,25.56
2019-06-01T16:12:21.733Z,25.38
2019-06-01T16:17:22.628Z,25.51
2019-06-01T16:22:23.483Z,25.67
2019-06-01T16:27:24.352Z,25.31
2019-06-01T16:32:25.237Z,25.58
2019-06-01T16:37:26.124Z,25.37
2019-06-01T16:42:27.011Z,24.38
2019-06-01T16:47:27.883Z,24.41
2019-06-01T16:52:28.786Z,24.30
2019-06-01T16:57:29.829Z,23.92
2019-06-01T17:02:30.849Z,23.88
2019-06-01T17:07:31.712Z,23.64
2019-06-01T17:12:32.884Z,23.41
2019-06-01T17:17:33.869Z,23.35
2019-06-01T17:22:34.744Z,23.29
2019-06-01T17:27:35.716Z,23.15
2019-06-01T17:32:36.594Z,22.98
2019-06-01T17:37:37.643Z,22.78
2019-06-01T17:42:38.516Z,22.70
2019-06-01T17:47:40.899Z,22.61
2019-06-01T17:52:43.279Z,22.52
2019-06-01T17:57:44.168Z,22.50
2019-06-01T18:02:45.232Z,22.53
2019-06-01T18:07:46.208Z,22.30
2019-06-01T18:12:47.237Z,22.14
2019-06-01T18:17:48.134Z,22.00
2019-06-01T18:22:49.109Z,21.90
2019-06-01T18:27:50.280Z,21.86
2019-06-01T18:32:52.370Z,21.88
2019-06-01T18:37:53.290Z,21.58
2019-06-01T18:43:00.520Z,21.69
2019-06-01T18:48:02.009Z,21.51
2019-06-01T18:53:03.876Z,21.32
2019-06-01T18:58:06.152Z,21.27
2019-06-01T19:03:08.892Z,21.01
2019-06-01T19:08:11.532Z,20.87
2019-06-01T19:13:13.982Z,20.42
2019-06-01T19:18:16.784Z,20.10
2019-06-01T19:23:21.750Z,20.07
2019-06-01T19:28:21.083Z,20.01
2019-06-01T19:33:22.083Z,19.42
2019-06-01T19:38:23.390Z,19.41
2019-06-01T19:43:24.282Z,19.67
2019-06-01T19:48:25.216Z,19.38
2019-06-01T19:53:26.085Z,19.11
2019-06-01T19:58:26.960Z,19.24
